createdAt,value
2023-08-03T00:00:15.456Z,572.4
2023-08-03T00:01:17.486Z,572
2023-08-03T00:02:19.342Z,572.3
2023-08-03T00:03:24.739Z,572.1
2023-08-03T00:04:29.926Z,572.2
2023-08-03T00:05:31.802Z,572.2
2023-08-03T00:06:33.821Z,572.1
2023-08-03T00:07:35.694Z,571.9
2023-08-03T00:08:37.501Z,571.7
2023-08-03T00:09:39.311Z,571.3
2023-08-03T00:10:41.142Z,571.3
2023-08-03T00:11:44.062Z,571.6
2023-08-03T00:12:46.085Z,571.7
2023-08-03T00:13:47.777Z,571.7
2023-08-03T00:14:49.567Z,571.4
2023-08-03T00:15:51.682Z,571.6
2023-08-03T00:16:53.472Z,571.7
2023-08-03T00:17:55.489Z,571.8
2023-08-03T00:18:57.344Z,571.6
2023-08-03T00:19:59.133Z,571.5
2023-08-03T00:21:00.933Z,571.7
2023-08-03T00:22:02.747Z,571.6
2023-08-03T00:23:04.484Z,571.5
2023-08-03T00:24:06.223Z,571.3
2023-08-03T00:25:08.074Z,571.7
2023-08-03T00:26:09.777Z,571.5
2023-08-03T00:27:11.534Z,571.3
2023-08-03T00:28:13.332Z,571.3
2023-08-03T00:29:17.998Z,571.4
2023-08-03T00:30:19.692Z,571.6
2023-08-03T00:31:21.571Z,571.8
2023-08-03T00:32:23.511Z,571.7
2023-08-03T00:33:25.326Z,571.9
2023-08-03T00:34:27.421Z,571.7
2023-08-03T00:35:29.233Z,571.7
2023-08-03T00:36:30.895Z,571.8
2023-08-03T00:37:32.640Z,572
2023-08-03T00:38:34.437Z,572.1
2023-08-03T00:39:36.458Z,571.9
2023-08-03T00:40:38.146Z,571.8
2023-08-03T00:41:40.047Z,572
2023-08-03T00:42:41.796Z,572
2023-08-03T00:43:43.521Z,572
2023-08-03T00:44:45.240Z,572.2
2023-08-03T00:45:49.973Z,572
2023-08-03T00:46:51.983Z,572.2
2023-08-03T00:47:54.180Z,572.1
2023-08-03T00:48:56.134Z,571.9
2023-08-03T00:49:57.922Z,571.8
2023-08-03T00:50:59.707Z,571.9
2023-08-03T00:52:01.397Z,572.4
2023-08-03T00:53:03.147Z,572.4
2023-08-03T00:54:04.889Z,572.2
2023-08-03T00:55:06.769Z,572.2
2023-08-03T00:56:08.573Z,572.3
2023-08-03T00:57:10.262Z,572.1
2023-08-03T00:58:11.987Z,572.3
2023-08-03T00:59:13.692Z,572.5
2023-08-03T01:00:15.410Z,572.2
2023-08-03T01:01:17.438Z,572.6
2023-08-03T01:02:19.553Z,572.5
2023-08-03T01:03:21.509Z,572.5
2023-08-03T01:04:23.345Z,572.4
2023-08-03T01:05:25.049Z,572.3
2023-08-03T01:06:27.362Z,572.6
2023-08-03T01:07:29.358Z,572.4
2023-08-03T01:08:31.076Z,572.3
2023-08-03T01:09:32.845Z,572.4
2023-08-03T01:10:34.912Z,572
2023-08-03T01:11:36.714Z,572
2023-08-03T01:12:38.528Z,572.3
2023-08-03T01:13:40.301Z,572.1
2023-08-03T01:14:42.095Z,572.1
2023-08-03T01:15:43.859Z,572.1
2023-08-03T01:16:45.696Z,571.8
2023-08-03T01:17:50.283Z,571.7
2023-08-03T01:18:52.082Z,572
2023-08-03T01:19:53.919Z,572.4
2023-08-03T01:20:55.650Z,572.2
2023-08-03T01:21:57.424Z,572.5
2023-08-03T01:22:59.150Z,572.4
2023-08-03T01:24:00.898Z,572.1
2023-08-03T01:25:02.637Z,572.5
2023-08-03T01:26:04.392Z,572.2
2023-08-03T01:27:06.096Z,572
2023-08-03T01:28:07.839Z,571.9
2023-08-03T01:29:09.532Z,572.1
2023-08-03T01:30:11.419Z,571.8
2023-08-03T01:31:13.392Z,571.8
2023-08-03T01:32:15.440Z,572
2023-08-03T01:33:17.930Z,572.1
2023-08-03T01:34:19.782Z,571.9
2023-08-03T01:35:24.246Z,572.1
2023-08-03T01:36:25.919Z,571.8
2023-08-03T01:37:27.678Z,572.1
2023-08-03T01:38:29.464Z,571.7
2023-08-03T01:39:31.236Z,571.8
2023-08-03T01:40:33.015Z,571.9
2023-08-03T01:41:34.863Z,572
2023-08-03T01:42:36.600Z,571.8
2023-08-03T01:43:38.314Z,571.8
2023-08-03T01:44:40.061Z,571.4
2023-08-03T01:45:41.784Z,571.7
2023-08-03T01:46:43.856Z,571.5
2023-08-03T01:47:45.878Z,571.6
2023-08-03T01:48:47.695Z,571.6
2023-08-03T01:49:49.469Z,571.2
2023-08-03T01:50:51.196Z,571.3
2023-08-03T01:51:53.061Z,571.4
2023-08-03T01:52:54.868Z,571.7
2023-08-03T01:53:56.618Z,571.3
2023-08-03T01:54:58.372Z,571.4
2023-08-03T01:56:00.181Z,571.2
2023-08-03T01:57:01.911Z,571.5
2023-08-03T01:58:03.655Z,571.2
2023-08-03T01:59:05.437Z,571.5
2023-08-03T02:00:07.240Z,571.5
2023-08-03T02:01:08.973Z,571.4
2023-08-03T02:02:10.934Z,571.2
2023-08-03T02:03:12.992Z,571.3
2023-08-03T02:04:14.826Z,571.4
2023-08-03T02:05:16.676Z,571.3
2023-08-03T02:06:18.530Z,571.4
2023-08-03T02:07:23.267Z,571.3
2023-08-03T02:08:25.068Z,571.4
2023-08-03T02:09:26.869Z,571.4
2023-08-03T02:10:28.720Z,571.1
2023-08-03T02:11:30.514Z,571.2
2023-08-03T02:12:32.192Z,571.2
2023-08-03T02:13:33.875Z,571.3
2023-08-03T02:14:35.699Z,571.3
2023-08-03T02:15:37.408Z,571.2
2023-08-03T02:16:39.397Z,571.3
2023-08-03T02:17:41.470Z,571.4
2023-08-03T02:18:43.313Z,571.3
2023-08-03T02:19:45.032Z,571.2
2023-08-03T02:20:46.786Z,571.3
2023-08-03T02:21:48.499Z,571.4
2023-08-03T02:22:50.420Z,571.3
2023-08-03T02:23:52.142Z,571.6
2023-08-03T02:24:53.950Z,571.9
2023-08-03T02:25:55.720Z,571.7
2023-08-03T02:26:57.609Z,572.1
2023-08-03T02:27:59.313Z,572.1
2023-08-03T02:29:01.038Z,572.2
2023-08-03T02:30:02.842Z,572.1
2023-08-03T02:31:04.544Z,571.9
2023-08-03T02:32:06.339Z,571.7
2023-08-03T02:33:08.193Z,571.3
2023-08-03T02:34:09.857Z,571.4
2023-08-03T02:35:11.553Z,571.1
2023-08-03T02:36:13.326Z,570.9
2023-08-03T02:37:14.995Z,570.9
2023-08-03T02:38:16.673Z,570.7
2023-08-03T02:39:18.387Z,570.7
2023-08-03T02:40:22.569Z,570.7
2023-08-03T02:41:24.406Z,570.8
2023-08-03T02:42:26.195Z,570.9
2023-08-03T02:43:27.983Z,570.9
2023-08-03T02:44:29.702Z,570.9
2023-08-03T02:45:31.434Z,570.8
2023-08-03T02:46:33.271Z,571
2023-08-03T02:47:35.199Z,570.8
2023-08-03T02:48:36.952Z,570.7
2023-08-03T02:49:38.640Z,570.7
2023-08-03T02:50:43.439Z,570.5
2023-08-03T02:51:46.560Z,570.8
2023-08-03T02:52:48.577Z,570.5
2023-08-03T02:53:50.380Z,570.8
2023-08-03T02:54:52.381Z,570.5
2023-08-03T02:55:54.160Z,570.7
2023-08-03T02:56:55.865Z,570.5
2023-08-03T02:57:57.808Z,570.3
2023-08-03T02:58:59.640Z,570.3
2023-08-03T03:00:01.553Z,570.3
2023-08-03T03:01:03.581Z,570.3
2023-08-03T03:02:05.317Z,570.3
2023-08-03T03:03:07.528Z,570.6
2023-08-03T03:04:09.413Z,570.7
2023-08-03T03:05:11.189Z,570.9
2023-08-03T03:06:13.094Z,570.7
2023-08-03T03:07:15.067Z,570.5
2023-08-03T03:08:16.792Z,570.4
2023-08-03T03:09:18.506Z,570.3
2023-08-03T03:10:20.294Z,570.1
2023-08-03T03:11:22.010Z,570.1
2023-08-03T03:12:23.779Z,570
2023-08-03T03:13:25.499Z,569.7
2023-08-03T03:14:27.285Z,569.5
2023-08-03T03:15:29.097Z,569.3
2023-08-03T03:16:30.948Z,569.2
2023-08-03T03:17:35.573Z,569.1
2023-08-03T03:18:37.368Z,569.1
2023-08-03T03:19:39.057Z,568.8
2023-08-03T03:20:40.915Z,569.3
2023-08-03T03:21:44.389Z,569.3
2023-08-03T03:22:46.242Z,569.2
2023-08-03T03:23:47.919Z,569.4
2023-08-03T03:24:49.592Z,569
2023-08-03T03:25:51.290Z,569.1
2023-08-03T03:26:53.524Z,568.9
2023-08-03T03:27:58.308Z,568.6
2023-08-03T03:29:00.041Z,568.5
2023-08-03T03:30:01.802Z,568.8
2023-08-03T03:31:03.604Z,568.8
2023-08-03T03:32:05.527Z,568.4
2023-08-03T03:33:10.338Z,568.6
2023-08-03T03:34:12.187Z,568.8
2023-08-03T03:35:13.914Z,568.5
2023-08-03T03:36:15.679Z,568.5
2023-08-03T03:37:17.457Z,568.3
2023-08-03T03:38:19.183Z,568.3
2023-08-03T03:39:20.945Z,568.4
2023-08-03T03:40:22.660Z,568.5
2023-08-03T03:41:24.474Z,568.2
2023-08-03T03:42:26.170Z,568.4
2023-08-03T03:43:27.884Z,568
2023-08-03T03:44:29.672Z,568.2
2023-08-03T03:45:31.746Z,567.8
2023-08-03T03:46:33.653Z,567.8
2023-08-03T03:47:35.838Z,568.2
2023-08-03T03:48:38.022Z,567.9
2023-08-03T03:49:40.318Z,568
2023-08-03T03:50:42.247Z,567.9
2023-08-03T03:51:47.669Z,567.9
2023-08-03T03:52:49.412Z,567.9
2023-08-03T03:53:51.232Z,568
2023-08-03T03:54:52.964Z,567.7
2023-08-03T03:55:54.665Z,567.6
2023-08-03T03:56:56.585Z,567.7
2023-08-03T03:57:58.337Z,567.4
2023-08-03T03:59:02.840Z,567.2
2023-08-03T04:00:04.676Z,567.3
2023-08-03T04:01:06.686Z,567.3
2023-08-03T04:02:08.480Z,566.9
2023-08-03T04:03:10.709Z,567.1
2023-08-03T04:04:12.458Z,567.2
2023-08-03T04:05:14.207Z,566.8
2023-08-03T04:06:18.872Z,567.1
2023-08-03T04:07:20.691Z,566.8
2023-08-03T04:08:22.441Z,567.5
2023-08-03T04:09:24.165Z,567.3
2023-08-03T04:10:25.860Z,567
2023-08-03T04:11:27.552Z,567.1
2023-08-03T04:12:29.334Z,567.3
2023-08-03T04:13:31.151Z,567.1
2023-08-03T04:14:32.920Z,567.3
2023-08-03T04:15:34.776Z,567.4
2023-08-03T04:16:36.564Z,567.9
2023-08-03T04:17:38.595Z,567.8
2023-08-03T04:18:40.293Z,567.3
2023-08-03T04:19:42.043Z,567.2
2023-08-03T04:20:43.777Z,567.5
2023-08-03T04:21:47.068Z,567
2023-08-03T04:22:49.110Z,567.1
2023-08-03T04:23:50.850Z,567
2023-08-03T04:24:52.576Z,566.8
2023-08-03T04:25:54.308Z,567.1
2023-08-03T04:26:56.158Z,566.8
2023-08-03T04:27:57.940Z,566.7
2023-08-03T04:28:59.664Z,566.6
2023-08-03T04:30:01.548Z,566.5
2023-08-03T04:31:03.713Z,566.4
2023-08-03T04:32:05.540Z,566.1
2023-08-03T04:33:07.267Z,566.1
2023-08-03T04:34:09.006Z,565.8
2023-08-03T04:35:10.738Z,566
2023-08-03T04:36:12.438Z,565.8
2023-08-03T04:37:14.114Z,566.1
2023-08-03T04:38:15.901Z,565.9
2023-08-03T04:39:17.760Z,565.5
2023-08-03T04:40:19.530Z,565.5
2023-08-03T04:41:21.216Z,565.4
2023-08-03T04:42:22.971Z,565.1
2023-08-03T04:43:24.689Z,565.1
2023-08-03T04:44:26.393Z,565
2023-08-03T04:45:28.126Z,564.8
2023-08-03T04:46:30.088Z,565.1
2023-08-03T04:47:35.019Z,564.8
2023-08-03T04:48:36.935Z,564.9
2023-08-03T04:49:38.659Z,565
2023-08-03T04:50:40.449Z,565.3
2023-08-03T04:51:43.521Z,565
2023-08-03T04:52:45.516Z,564.8
2023-08-03T04:53:47.344Z,565.1
2023-08-03T04:54:49.132Z,565.1
2023-08-03T04:55:50.905Z,564.8
2023-08-03T04:56:54.435Z,564.9
2023-08-03T04:57:56.135Z,565.2
2023-08-03T04:58:57.942Z,564.7
2023-08-03T04:59:59.700Z,564.9
2023-08-03T05:01:02.101Z,565.1
2023-08-03T05:02:04.281Z,564.7
2023-08-03T05:03:06.599Z,564.9
2023-08-03T05:04:08.935Z,565
2023-08-03T05:05:10.715Z,564.8
2023-08-03T05:06:12.841Z,564.9
2023-08-03T05:07:14.682Z,565
2023-08-03T05:08:16.589Z,564.7
2023-08-03T05:09:18.420Z,564.9
2023-08-03T05:10:20.151Z,564.9
2023-08-03T05:11:21.953Z,564.8
2023-08-03T05:12:23.670Z,565
2023-08-03T05:13:25.389Z,564.7
2023-08-03T05:14:27.278Z,564.6
2023-08-03T05:15:29.025Z,564.6
2023-08-03T05:16:31.036Z,564.7
2023-08-03T05:17:33.215Z,564.5
2023-08-03T05:18:35.020Z,564.1
2023-08-03T05:19:36.864Z,564.4
2023-08-03T05:20:38.642Z,564.2
2023-08-03T05:21:40.424Z,564
2023-08-03T05:22:42.261Z,564
2023-08-03T05:23:43.957Z,564.3
2023-08-03T05:24:45.757Z,564.2
2023-08-03T05:25:47.472Z,563.9
2023-08-03T05:26:49.204Z,563.8
2023-08-03T05:27:50.942Z,563.6
2023-08-03T05:28:52.684Z,563.7
2023-08-03T05:29:54.530Z,563.7
2023-08-03T05:30:56.495Z,563.7
2023-08-03T05:31:58.250Z,564.1
2023-08-03T05:33:00.175Z,563.8
2023-08-03T05:34:01.955Z,563.8
2023-08-03T05:35:03.719Z,563.2
2023-08-03T05:36:05.399Z,563.4
2023-08-03T05:37:07.155Z,563.3
2023-08-03T05:38:08.859Z,563.4
2023-08-03T05:39:10.590Z,563.3
2023-08-03T05:40:12.343Z,563.2
2023-08-03T05:41:14.050Z,563.2
2023-08-03T05:42:15.876Z,563.1
2023-08-03T05:43:17.585Z,563.1
2023-08-03T05:44:19.299Z,563
2023-08-03T05:45:21.065Z,563
2023-08-03T05:46:28.684Z,562.8
2023-08-03T05:47:30.585Z,563
2023-08-03T05:48:32.515Z,563
2023-08-03T05:49:35.082Z,563.2
2023-08-03T05:50:36.849Z,563.3
2023-08-03T05:51:38.544Z,563.1
2023-08-03T05:52:40.253Z,563.5
2023-08-03T05:53:42.122Z,563.1
2023-08-03T05:54:48.036Z,563.3
2023-08-03T05:56:13.112Z,563
2023-08-03T05:57:14.971Z,563.2
2023-08-03T05:58:16.861Z,563.3
2023-08-03T05:59:18.611Z,563.3
2023-08-03T06:00:20.342Z,563.1
2023-08-03T06:01:22.219Z,562.7
2023-08-03T06:02:24.065Z,562.9
2023-08-03T06:03:25.745Z,562.7
2023-08-03T06:04:30.690Z,562.5
2023-08-03T06:05:32.443Z,562.6
2023-08-03T06:06:34.726Z,562.5
2023-08-03T06:07:36.692Z,562.7
2023-08-03T06:08:38.453Z,562.6
2023-08-03T06:09:40.188Z,562.8
2023-08-03T06:10:41.926Z,562.6
2023-08-03T06:11:44.317Z,562.4
2023-08-03T06:12:46.124Z,562.7
2023-08-03T06:13:47.914Z,562.6
2023-08-03T06:14:49.628Z,562.4
2023-08-03T06:15:51.360Z,562.7
2023-08-03T06:16:53.156Z,562.5
2023-08-03T06:17:55.087Z,562.2
2023-08-03T06:18:56.937Z,561.9
2023-08-03T06:19:58.792Z,562.2
2023-08-03T06:21:00.790Z,562.1
2023-08-03T06:22:02.533Z,562
2023-08-03T06:23:04.328Z,561.8
2023-08-03T06:24:06.027Z,561.6
2023-08-03T06:25:07.915Z,561.9
2023-08-03T06:26:10.117Z,561.8
2023-08-03T06:27:11.905Z,562
2023-08-03T06:28:13.636Z,561.9
2023-08-03T06:29:15.501Z,561.9
2023-08-03T06:30:17.220Z,561.8
2023-08-03T06:31:19.130Z,561.6
2023-08-03T06:32:20.939Z,561.7
2023-08-03T06:33:22.654Z,561.9
2023-08-03T06:34:24.383Z,562
2023-08-03T06:35:26.285Z,562
2023-08-03T06:36:28.038Z,561.9
2023-08-03T06:37:29.745Z,562
2023-08-03T06:38:31.514Z,562.3
2023-08-03T06:39:33.375Z,561.9
2023-08-03T06:40:35.067Z,562.1
2023-08-03T06:41:36.801Z,561.8
2023-08-03T06:42:38.515Z,561.7
2023-08-03T06:43:40.327Z,561.5
2023-08-03T06:44:42.170Z,561.5
2023-08-03T06:45:44.239Z,561.5
2023-08-03T06:46:46.207Z,561.4
2023-08-03T06:47:48.269Z,561.3
2023-08-03T06:48:50.042Z,561.1
2023-08-03T06:49:51.815Z,561
2023-08-03T06:50:53.644Z,561.3
2023-08-03T06:51:58.158Z,561.2
2023-08-03T06:52:59.847Z,561.3
2023-08-03T06:54:01.573Z,561.4
2023-08-03T06:55:03.372Z,561.8
2023-08-03T06:56:05.165Z,561.6
2023-08-03T06:57:06.953Z,561.7
2023-08-03T06:58:09.483Z,561.7
2023-08-03T06:59:11.189Z,562
2023-08-03T07:00:13.046Z,561.5
2023-08-03T07:01:15.256Z,561.3
2023-08-03T07:02:17.151Z,561.4
2023-08-03T07:03:19.800Z,561.3
2023-08-03T07:04:21.882Z,561.4
2023-08-03T07:05:23.563Z,562.2
2023-08-03T07:06:25.754Z,562.1
2023-08-03T07:07:27.477Z,561.8
2023-08-03T07:08:29.276Z,561.7
2023-08-03T07:09:31.051Z,562
2023-08-03T07:10:32.773Z,562.3
2023-08-03T07:11:34.515Z,561.9
2023-08-03T07:12:36.238Z,561.8
2023-08-03T07:13:38.290Z,562
2023-08-03T07:14:40.037Z,562.1
2023-08-03T07:15:42.434Z,562
2023-08-03T07:16:44.301Z,562.1
2023-08-03T07:17:46.192Z,562.1
2023-08-03T07:18:48.336Z,561.9
2023-08-03T07:19:50.112Z,562.1
2023-08-03T07:20:51.817Z,562
2023-08-03T07:21:53.627Z,562
2023-08-03T07:22:55.480Z,562.1
2023-08-03T07:23:57.184Z,562.2
2023-08-03T07:25:01.583Z,562.4
2023-08-03T07:26:03.368Z,562.2
2023-08-03T07:27:05.183Z,562.2
2023-08-03T07:28:07.049Z,562.6
2023-08-03T07:29:08.760Z,562.5
2023-08-03T07:30:10.583Z,562.4
2023-08-03T07:31:12.589Z,562.5
2023-08-03T07:32:14.415Z,562.7
2023-08-03T07:33:16.314Z,562.5
2023-08-03T07:34:18.322Z,562.5
2023-08-03T07:35:20.104Z,562.8
2023-08-03T07:36:21.833Z,563
2023-08-03T07:37:23.757Z,563
2023-08-03T07:38:25.569Z,563.1
2023-08-03T07:39:30.346Z,563.1
2023-08-03T07:40:32.211Z,563.4
2023-08-03T07:41:36.151Z,563
2023-08-03T07:42:37.839Z,563.3
2023-08-03T07:43:39.557Z,563.3
2023-08-03T07:44:50.138Z,563.5
2023-08-03T07:45:52.716Z,563.6
2023-08-03T07:46:54.573Z,563.3
2023-08-03T07:47:56.724Z,563.5
2023-08-03T07:48:58.500Z,563.8
2023-08-03T07:50:00.464Z,563.8
2023-08-03T07:51:02.352Z,564
2023-08-03T07:52:04.579Z,564.1
2023-08-03T07:53:06.530Z,563.7
2023-08-03T07:54:08.273Z,563.9
2023-08-03T07:55:11.255Z,563.6
2023-08-03T07:56:13.044Z,563.8
2023-08-03T07:57:14.756Z,563.6
2023-08-03T07:58:16.482Z,564.2
2023-08-03T07:59:18.200Z,564.4
2023-08-03T08:00:19.906Z,564.4
2023-08-03T08:01:22.187Z,564
2023-08-03T08:02:24.397Z,564.2
2023-08-03T08:03:26.531Z,564.2
2023-08-03T08:04:28.359Z,564.1
2023-08-03T08:05:32.822Z,563.9
2023-08-03T08:06:34.561Z,564
2023-08-03T08:07:37.524Z,564
2023-08-03T08:08:39.274Z,564.2
2023-08-03T08:09:41.190Z,564.1
2023-08-03T08:10:43.074Z,564.1
2023-08-03T08:11:46.528Z,564.3
2023-08-03T08:12:50.573Z,564
2023-08-03T08:13:52.344Z,564.3
2023-08-03T08:14:54.203Z,564.3
2023-08-03T08:15:56.633Z,564.6
2023-08-03T08:17:16.184Z,564.8
2023-08-03T08:18:18.714Z,564.3
2023-08-03T08:19:22.871Z,564.5
2023-08-03T08:20:24.858Z,564.6
2023-08-03T08:21:27.075Z,565
2023-08-03T08:22:29.854Z,565
2023-08-03T08:23:31.807Z,565
2023-08-03T08:24:34.060Z,564.9
2023-08-03T08:25:39.673Z,564.8
2023-08-03T08:26:42.372Z,565.1
2023-08-03T08:27:47.828Z,565.1
2023-08-03T08:29:10.421Z,565
2023-08-03T08:30:12.572Z,565.2
2023-08-03T08:31:14.681Z,565.2
2023-08-03T08:32:17.022Z,565.3
2023-08-03T08:33:19.285Z,565.1
2023-08-03T08:34:21.149Z,565.3
2023-08-03T08:35:22.918Z,565.4
2023-08-03T08:36:24.783Z,565.6
2023-08-03T08:37:26.596Z,565.9
2023-08-03T08:38:31.295Z,565.9
2023-08-03T08:39:33.189Z,565.6
2023-08-03T08:40:34.999Z,566
2023-08-03T08:41:36.729Z,566.1
2023-08-03T08:42:38.879Z,566.1
2023-08-03T08:43:40.712Z,566.4
2023-08-03T08:44:42.468Z,566.3
2023-08-03T08:45:44.241Z,566.5
2023-08-03T08:46:47.125Z,566.6
2023-08-03T08:47:50.160Z,566.7
2023-08-03T08:48:53.174Z,566.5
2023-08-03T08:50:24.308Z,566.5
2023-08-03T08:55:18.527Z,567.1
2023-08-03T08:57:13.339Z,566.8
2023-08-03T08:58:20.377Z,567.1
2023-08-03T08:59:33.536Z,567.2
2023-08-03T09:00:35.553Z,567
2023-08-03T09:01:37.391Z,566.9
2023-08-03T09:02:39.652Z,566.9
2023-08-03T09:04:56.109Z,567.3
2023-08-03T09:07:12.511Z,567
2023-08-03T09:08:14.384Z,567
2023-08-03T09:09:16.141Z,567
2023-08-03T09:10:17.917Z,567.6
2023-08-03T09:11:20.236Z,567.6
2023-08-03T09:12:22.542Z,567.6
2023-08-03T09:13:24.428Z,567.6
2023-08-03T09:14:26.435Z,567.5
2023-08-03T09:15:28.306Z,567.8
2023-08-03T09:16:33.111Z,567.3
2023-08-03T09:17:35.483Z,567.7
2023-08-03T09:18:37.436Z,567.7
2023-08-03T09:20:45.163Z,567.7
2023-08-03T09:25:42.568Z,568.2
2023-08-03T09:28:38.846Z,568.5
2023-08-03T09:29:40.996Z,568.4
2023-08-03T09:30:42.736Z,568.5
2023-08-03T09:31:56.004Z,568.7
2023-08-03T09:32:58.329Z,568.7
2023-08-03T09:34:00.937Z,569
2023-08-03T09:35:02.883Z,568.7
2023-08-03T09:36:04.702Z,569
2023-08-03T09:37:10.774Z,569.6
2023-08-03T09:38:12.728Z,569.4
2023-08-03T09:40:28.557Z,569.6
2023-08-03T09:41:59.146Z,569.7
2023-08-03T09:43:06.413Z,569.6
2023-08-03T09:44:08.237Z,570
2023-08-03T09:45:34.118Z,570.2
2023-08-03T09:46:36.055Z,570.5
2023-08-03T09:47:38.522Z,570.3
2023-08-03T09:48:40.651Z,570.7
2023-08-03T09:49:42.785Z,570.7
2023-08-03T09:50:44.891Z,571.2
2023-08-03T09:53:01.094Z,571.4
2023-08-03T09:55:16.782Z,571.1
2023-08-03T09:56:18.704Z,570.9
2023-08-03T09:57:23.865Z,570.9
2023-08-03T09:58:25.771Z,571
2023-08-03T09:59:28.138Z,570.9
2023-08-03T10:00:30.332Z,571.1
2023-08-03T10:01:32.277Z,571.2
2023-08-03T10:02:34.084Z,571.3
2023-08-03T10:03:36.295Z,571.6
2023-08-03T10:04:38.309Z,571.7
2023-08-03T10:05:40.085Z,571.8
2023-08-03T10:06:42.047Z,571.7
2023-08-03T10:07:43.906Z,571.8
2023-08-03T10:08:45.693Z,572
2023-08-03T10:09:49.976Z,572.3
2023-08-03T10:10:51.830Z,571.9
2023-08-03T10:11:53.610Z,572
2023-08-03T10:12:55.532Z,572.2
2023-08-03T10:14:00.013Z,572.4
2023-08-03T10:15:01.798Z,572.4
2023-08-03T10:16:04.474Z,572.7
2023-08-03T10:17:06.926Z,572.3
2023-08-03T10:18:09.123Z,572.5
2023-08-03T10:19:11.037Z,573.2
2023-08-03T10:20:12.822Z,573.2
2023-08-03T10:21:14.769Z,573.4
2023-08-03T10:22:16.537Z,573.6
2023-08-03T10:23:18.557Z,573.5
2023-08-03T10:24:20.747Z,573.4
2023-08-03T10:25:22.633Z,573.9
2023-08-03T10:26:24.700Z,573.9
2023-08-03T10:27:27.376Z,574.4
2023-08-03T10:28:29.185Z,574.6
2023-08-03T10:29:31.031Z,574.4
2023-08-03T10:30:33.375Z,574.9
2023-08-03T10:31:35.236Z,575.4
2023-08-03T10:32:39.805Z,575.3
2023-08-03T10:33:41.830Z,575.2
2023-08-03T10:34:43.680Z,575.8
2023-08-03T10:35:45.446Z,576
2023-08-03T10:36:49.007Z,575.8
2023-08-03T10:37:51.050Z,575.9
2023-08-03T10:38:52.949Z,576
2023-08-03T10:39:55.560Z,576.1
2023-08-03T10:40:57.481Z,576.4
2023-08-03T10:41:59.249Z,576.5
2023-08-03T10:43:01.526Z,576.1
2023-08-03T10:44:03.389Z,576.6
2023-08-03T10:45:05.304Z,576.4
2023-08-03T10:46:07.836Z,576.6
2023-08-03T10:47:10.681Z,576.3
2023-08-03T10:48:13.967Z,576.2
2023-08-03T10:49:16.195Z,576.1
2023-08-03T10:50:18.246Z,576
2023-08-03T10:51:20.040Z,576
2023-08-03T10:52:22.044Z,576.3
2023-08-03T10:53:23.915Z,576.5
2023-08-03T10:54:25.727Z,576.4
2023-08-03T10:55:30.901Z,576.3
2023-08-03T10:56:32.834Z,576.7
2023-08-03T10:57:34.552Z,576.3
2023-08-03T10:58:36.632Z,576.7
2023-08-03T10:59:38.457Z,576.3
2023-08-03T11:00:40.306Z,576.5
2023-08-03T11:01:42.412Z,577
2023-08-03T11:02:45.073Z,577.4
2023-08-03T11:03:47.702Z,577.2
2023-08-03T11:04:49.632Z,577.7
2023-08-03T11:05:51.586Z,578.3
2023-08-03T11:06:53.402Z,577.8
2023-08-03T11:07:55.334Z,577.8
2023-08-03T11:08:57.194Z,578.2
2023-08-03T11:09:58.958Z,577.7
2023-08-03T11:11:03.823Z,577.5
2023-08-03T11:12:05.706Z,577.8
2023-08-03T11:13:07.502Z,577.9
2023-08-03T11:14:09.483Z,577.7
2023-08-03T11:15:11.233Z,577.9
2023-08-03T11:16:13.297Z,578.2
2023-08-03T11:17:15.563Z,578.5
2023-08-03T11:18:20.256Z,578.4
2023-08-03T11:19:21.994Z,578.3
2023-08-03T11:20:23.780Z,578.7
2023-08-03T11:21:25.537Z,578.7
2023-08-03T11:22:27.697Z,578.7
2023-08-03T11:23:29.559Z,578.4
2023-08-03T11:24:31.288Z,578.6
2023-08-03T11:25:33.235Z,578.8
2023-08-03T11:26:35.022Z,578.9
2023-08-03T11:27:36.862Z,578.8
2023-08-03T11:28:38.745Z,579
2023-08-03T11:29:44.622Z,578.8
2023-08-03T11:30:46.405Z,579
2023-08-03T11:31:51.197Z,579
2023-08-03T11:32:53.065Z,579
2023-08-03T11:33:55.235Z,579
2023-08-03T11:34:57.500Z,579.1
2023-08-03T11:35:59.228Z,579
2023-08-03T11:37:00.955Z,579.1
2023-08-03T11:38:02.848Z,578.7
2023-08-03T11:39:04.850Z,578.9
2023-08-03T11:40:07.019Z,579.5
2023-08-03T11:41:12.730Z,579.4
2023-08-03T11:42:14.561Z,579.7
2023-08-03T11:43:16.503Z,579.2
2023-08-03T11:44:18.239Z,579.4
2023-08-03T11:45:19.997Z,579.9
2023-08-03T11:46:21.721Z,579.6
2023-08-03T11:47:25.019Z,579.8
2023-08-03T11:48:26.925Z,580.1
2023-08-03T11:49:28.862Z,580.3
2023-08-03T11:50:30.625Z,580.8
2023-08-03T11:51:32.501Z,580.8
2023-08-03T11:52:34.537Z,580.7
2023-08-03T11:53:36.521Z,581.1
2023-08-03T11:54:38.323Z,581.3
2023-08-03T11:55:40.715Z,581.2
2023-08-03T11:56:46.362Z,581.2
2023-08-03T11:57:54.102Z,581.1
2023-08-03T11:58:55.996Z,580.9
2023-08-03T11:59:58.694Z,580.8
2023-08-03T12:01:00.803Z,580.7
2023-08-03T12:02:03.026Z,580.8
2023-08-03T12:03:05.667Z,581
2023-08-03T12:04:16.441Z,580.8
2023-08-03T12:05:20.941Z,581
2023-08-03T12:07:37.519Z,580.3
2023-08-03T12:08:40.402Z,580.5
2023-08-03T12:09:42.313Z,580.4
2023-08-03T12:10:44.443Z,580.5
2023-08-03T12:12:49.075Z,580.2
2023-08-03T12:13:50.824Z,579.9
2023-08-03T12:14:52.842Z,580.6
2023-08-03T12:15:54.584Z,580.7
2023-08-03T12:17:00.151Z,580.8
2023-08-03T12:18:02.208Z,581
2023-08-03T12:19:04.390Z,580.6
2023-08-03T12:20:06.368Z,580.7
2023-08-03T12:21:08.221Z,581.3
2023-08-03T12:22:13.443Z,581.2
2023-08-03T12:23:15.297Z,581.1
2023-08-03T12:24:17.251Z,580.9
2023-08-03T12:25:23.480Z,581.3
2023-08-03T12:26:25.286Z,581
2023-08-03T12:27:27.324Z,581
2023-08-03T12:28:29.132Z,581.1
2023-08-03T12:29:30.881Z,581.1
2023-08-03T12:30:32.721Z,580.6
2023-08-03T12:31:34.978Z,580.6
2023-08-03T12:33:39.934Z,580.7
2023-08-03T12:34:41.880Z,580.6
2023-08-03T12:35:43.710Z,581.2
2023-08-03T12:36:47.607Z,581.1
2023-08-03T12:37:49.579Z,581.1
2023-08-03T12:38:51.406Z,581
2023-08-03T12:39:53.404Z,580.8
2023-08-03T12:40:55.181Z,580.9
2023-08-03T12:41:56.981Z,580.6
2023-08-03T12:42:59.052Z,580.9
2023-08-03T12:44:00.961Z,581
2023-08-03T12:45:02.764Z,581.2
2023-08-03T12:46:04.891Z,581.3
2023-08-03T12:47:10.426Z,581.4
2023-08-03T12:48:18.961Z,581.6
2023-08-03T12:49:21.016Z,581.6
2023-08-03T12:50:23.083Z,581.7
2023-08-03T12:51:24.997Z,582
2023-08-03T12:52:26.774Z,582
2023-08-03T12:53:29.037Z,582.2
2023-08-03T12:54:30.991Z,582.4
2023-08-03T12:55:32.702Z,582.2
2023-08-03T12:56:34.410Z,582.2
2023-08-03T12:57:36.307Z,582.4
2023-08-03T12:58:38.022Z,582.1
2023-08-03T12:59:41.321Z,581.6
2023-08-03T13:00:43.630Z,581.7
2023-08-03T13:01:45.967Z,581.6
2023-08-03T13:02:48.378Z,581.7
2023-08-03T13:03:50.371Z,581.8
2023-08-03T13:04:52.858Z,581.8
2023-08-03T13:05:55.095Z,581.7
2023-08-03T13:06:57.729Z,581.7
2023-08-03T13:08:00.080Z,581.9
2023-08-03T13:09:01.962Z,582.2
2023-08-03T13:10:03.791Z,582.1
2023-08-03T13:11:07.966Z,582.2
2023-08-03T13:12:09.776Z,582
2023-08-03T13:13:11.550Z,582.3
2023-08-03T13:14:15.251Z,581.9
2023-08-03T13:15:17.166Z,582.5
2023-08-03T13:16:19.166Z,582.7
2023-08-03T13:17:21.564Z,582.4
2023-08-03T13:18:24.410Z,582.6
2023-08-03T13:19:26.310Z,582.6
2023-08-03T13:20:28.603Z,582.9
2023-08-03T13:21:30.460Z,582.7
2023-08-03T13:22:32.200Z,582.3
2023-08-03T13:23:33.946Z,582.5
2023-08-03T13:24:35.704Z,582.3
2023-08-03T13:25:37.457Z,582.6
2023-08-03T13:26:42.094Z,582.9
2023-08-03T13:27:43.869Z,582.4
2023-08-03T13:28:46.037Z,582.8
2023-08-03T13:29:47.795Z,583.1
2023-08-03T13:30:49.836Z,582.5
2023-08-03T13:31:51.772Z,583.2
2023-08-03T13:32:53.659Z,583.4
2023-08-03T13:33:55.482Z,583.6
2023-08-03T13:35:00.548Z,583.5
2023-08-03T13:36:02.457Z,583.3
2023-08-03T13:37:04.194Z,583.6
2023-08-03T13:38:11.226Z,583.5
2023-08-03T13:39:13.116Z,583.9
2023-08-03T13:40:14.880Z,583.5
2023-08-03T13:41:17.176Z,583.3
2023-08-03T13:42:18.985Z,583.3
2023-08-03T13:43:20.851Z,582.9
2023-08-03T13:44:22.920Z,583.6
2023-08-03T13:45:24.810Z,583.5
2023-08-03T13:46:26.654Z,583.7
2023-08-03T13:47:29.233Z,583.7
2023-08-03T13:48:31.290Z,583.4
2023-08-03T13:49:33.312Z,583.7
2023-08-03T13:50:35.616Z,583.9